Tuzla, Bosnia and Herzegovina

5:51 PM CET on December 20, 2014 (GMT +0100)
Tuzla | Change Station
CLOSE
Current Station
Airport
Location: TUZLA,
Elevation: 784 ft
Nearby Weather Stations

Elev 784 ft 44.46 °N, 18.73 °E | Updated 21 minutes ago

Clear
Clear
45 °F
Feels Like 41 °F
N
6
Wind Variable Wind from ESE

Today
High -- | Low -- °F
--% Chance of Precip.
Yesterday
High -- | Low -- °F
Precip. -- in
7:18 AM 4:07 PM
Waning Crescent, 2% visible
Pressure 30.12 in
Visibility -9999.0 miles
Clouds
Windchill 41 °F
Dew Point 43 °F
Humidity 93%
Rainfall 0.00 in
Snow Depth Not available.
UV Not available.
Pollen Not available.
Air Quality Not available.
Flu Activity Not available.
METAR LQTZ 201630Z 11005KT CAVOK 07/06 Q1020

More Conditions Fewer Conditions

Pressure 30.12 in
Visibility -9999.0 miles
Clouds
Windchill 41 °F
Dew Point 43 °F
Humidity 93%
Rainfall 0.00 in
Snow Depth Not available.
UV Not available.
Pollen Not available.
Air Quality Not available.
Flu Activity Not available.
METAR LQTZ 201630Z 11005KT CAVOK 07/06 Q1020

More Conditions Fewer Conditions

10-Day Weather Forecast

Almanac

Astronomy

Dec. 20, 2014 Rise Set
Actual Time
Civil Twilight
Nautical Twilight
Astronomical Twilight
Moon
Length of Visible Light
Length of Day
Tomorrow will be .
, % of the Moon is Illuminated

Today's Extremes

Country Highs Country Lows

Community

WunderPhotos

Upload Photos

1,779,221 photos uploaded!

WunderBlogs® & News

Nearby

Air Quality

  Air Quality AQ Index Pollutant
Not available.

Snow Depth

Station Depth Elevation

Earthquake Activity

City Distance Mag. Time & Date
Minimum magnitude displayed is 2.5.

Coastal Water Temperatures

Place Temperature

Nearby Weather Stations